sensor_id;sensor_type;location;lat;lon;timestamp;P1;durP1;ratioP1;P2;durP2;ratioP2
38252;SDS011;24785;52.372;20.672;2022-07-11T00:09:56;4.93;;;2.50;;
38252;SDS011;24785;52.372;20.672;2022-07-11T00:19:57;4.82;;;2.70;;
38252;SDS011;24785;52.372;20.672;2022-07-11T00:29:59;3.72;;;2.33;;
38252;SDS011;24785;52.372;20.672;2022-07-11T00:39:59;7.03;;;3.05;;
38252;SDS011;24785;52.372;20.672;2022-07-11T00:50:00;5.45;;;2.90;;
38252;SDS011;24785;52.372;20.672;2022-07-11T01:00:01;4.25;;;2.58;;
38252;SDS011;24785;52.372;20.672;2022-07-11T01:10:03;5.80;;;2.70;;
38252;SDS011;24785;52.372;20.672;2022-07-11T01:20:04;4.97;;;2.80;;
38252;SDS011;24785;52.372;20.672;2022-07-11T01:30:05;4.15;;;2.30;;
38252;SDS011;24785;52.372;20.672;2022-07-11T01:40:07;3.88;;;2.15;;
38252;SDS011;24785;52.372;20.672;2022-07-11T01:50:08;3.85;;;2.40;;
38252;SDS011;24785;52.372;20.672;2022-07-11T02:00:09;6.55;;;2.47;;
38252;SDS011;24785;52.372;20.672;2022-07-11T02:10:11;6.03;;;3.07;;
38252;SDS011;24785;52.372;20.672;2022-07-11T02:20:12;5.82;;;3.40;;
38252;SDS011;24785;52.372;20.672;2022-07-11T02:30:13;7.35;;;3.80;;
38252;SDS011;24785;52.372;20.672;2022-07-11T02:40:14;8.88;;;3.20;;
38252;SDS011;24785;52.372;20.672;2022-07-11T02:50:15;6.85;;;3.28;;
38252;SDS011;24785;52.372;20.672;2022-07-11T03:00:17;10.55;;;3.60;;
38252;SDS011;24785;52.372;20.672;2022-07-11T03:10:18;6.72;;;3.20;;
38252;SDS011;24785;52.372;20.672;2022-07-11T03:20:19;6.97;;;3.58;;
38252;SDS011;24785;52.372;20.672;2022-07-11T03:30:20;7.20;;;3.70;;
38252;SDS011;24785;52.372;20.672;2022-07-11T03:40:21;6.15;;;3.72;;
38252;SDS011;24785;52.372;20.672;2022-07-11T03:50:22;5.88;;;3.38;;
38252;SDS011;24785;52.372;20.672;2022-07-11T04:00:23;8.02;;;3.35;;
38252;SDS011;24785;52.372;20.672;2022-07-11T04:10:24;8.25;;;3.10;;
38252;SDS011;24785;52.372;20.672;2022-07-11T04:20:25;7.35;;;3.85;;
38252;SDS011;24785;52.372;20.672;2022-07-11T04:30:25;6.53;;;3.40;;
38252;SDS011;24785;52.372;20.672;2022-07-11T04:40:26;5.20;;;3.53;;
38252;SDS011;24785;52.372;20.672;2022-07-11T04:50:28;7.47;;;3.60;;
38252;SDS011;24785;52.372;20.672;2022-07-11T05:00:29;10.03;;;4.43;;
38252;SDS011;24785;52.372;20.672;2022-07-11T05:10:30;8.55;;;4.55;;
38252;SDS011;24785;52.372;20.672;2022-07-11T05:20:33;10.00;;;4.93;;
38252;SDS011;24785;52.372;20.672;2022-07-11T05:30:34;14.02;;;4.78;;
38252;SDS011;24785;52.372;20.672;2022-07-11T05:40:35;9.48;;;4.93;;
38252;SDS011;24785;52.372;20.672;2022-07-11T05:50:35;11.25;;;4.75;;
38252;SDS011;24785;52.372;20.672;2022-07-11T06:00:36;12.52;;;4.80;;
38252;SDS011;24785;52.372;20.672;2022-07-11T06:10:37;10.45;;;4.25;;
38252;SDS011;24785;52.372;20.672;2022-07-11T06:20:39;5.70;;;3.80;;
38252;SDS011;24785;52.372;20.672;2022-07-11T06:30:40;9.40;;;3.67;;
38252;SDS011;24785;52.372;20.672;2022-07-11T06:40:41;8.02;;;3.75;;
38252;SDS011;24785;52.372;20.672;2022-07-11T06:50:42;6.70;;;4.07;;
38252;SDS011;24785;52.372;20.672;2022-07-11T07:00:43;10.65;;;4.55;;
38252;SDS011;24785;52.372;20.672;2022-07-11T07:10:45;10.07;;;4.53;;
38252;SDS011;24785;52.372;20.672;2022-07-11T07:20:46;6.88;;;3.67;;
38252;SDS011;24785;52.372;20.672;2022-07-11T07:30:48;7.17;;;3.30;;
38252;SDS011;24785;52.372;20.672;2022-07-11T07:40:49;5.35;;;3.60;;
38252;SDS011;24785;52.372;20.672;2022-07-11T07:50:49;5.20;;;2.00;;
38252;SDS011;24785;52.372;20.672;2022-07-11T08:00:50;2.90;;;1.70;;
38252;SDS011;24785;52.372;20.672;2022-07-11T08:11:09;1.80;;;0.98;;
38252;SDS011;24785;52.372;20.672;2022-07-11T08:21:10;2.78;;;1.00;;
38252;SDS011;24785;52.372;20.672;2022-07-11T08:31:11;1.98;;;1.00;;
38252;SDS011;24785;52.372;20.672;2022-07-11T08:41:13;0.60;;;0.40;;
38252;SDS011;24785;52.372;20.672;2022-07-11T08:51:14;4.07;;;0.90;;
38252;SDS011;24785;52.372;20.672;2022-07-11T09:01:15;1.08;;;0.80;;
38252;SDS011;24785;52.372;20.672;2022-07-11T09:11:17;3.35;;;0.70;;
38252;SDS011;24785;52.372;20.672;2022-07-11T09:21:18;0.55;;;0.50;;
38252;SDS011;24785;52.372;20.672;2022-07-11T09:31:38;0.65;;;0.57;;
38252;SDS011;24785;52.372;20.672;2022-07-11T09:41:41;0.50;;;0.50;;
38252;SDS011;24785;52.372;20.672;2022-07-11T09:51:43;1.02;;;0.60;;
38252;SDS011;24785;52.372;20.672;2022-07-11T10:01:44;1.65;;;0.75;;
38252;SDS011;24785;52.372;20.672;2022-07-11T10:11:45;1.23;;;0.70;;
38252;SDS011;24785;52.372;20.672;2022-07-11T10:22:00;0.90;;;0.80;;
38252;SDS011;24785;52.372;20.672;2022-07-11T10:32:07;1.60;;;0.68;;
38252;SDS011;24785;52.372;20.672;2022-07-11T10:42:09;3.28;;;0.80;;
38252;SDS011;24785;52.372;20.672;2022-07-11T10:52:21;1.23;;;0.70;;
38252;SDS011;24785;52.372;20.672;2022-07-11T11:23:09;1.08;;;0.50;;
38252;SDS011;24785;52.372;20.672;2022-07-11T11:33:15;0.60;;;0.50;;
38252;SDS011;24785;52.372;20.672;2022-07-11T11:43:19;2.47;;;0.50;;
38252;SDS011;24785;52.372;20.672;2022-07-11T11:53:23;5.10;;;0.90;;
38252;SDS011;24785;52.372;20.672;2022-07-11T12:03:26;2.63;;;1.20;;
38252;SDS011;24785;52.372;20.672;2022-07-11T12:13:27;0.52;;;0.52;;
38252;SDS011;24785;52.372;20.672;2022-07-11T12:23:27;1.67;;;0.60;;
38252;SDS011;24785;52.372;20.672;2022-07-11T12:33:28;1.42;;;0.80;;
38252;SDS011;24785;52.372;20.672;2022-07-11T12:43:41;0.43;;;0.40;;
38252;SDS011;24785;52.372;20.672;2022-07-11T12:54:03;4.13;;;0.90;;
38252;SDS011;24785;52.372;20.672;2022-07-11T13:04:06;1.63;;;0.50;;
38252;SDS011;24785;52.372;20.672;2022-07-11T13:14:07;1.45;;;0.63;;
38252;SDS011;24785;52.372;20.672;2022-07-11T13:24:28;3.13;;;0.45;;
38252;SDS011;24785;52.372;20.672;2022-07-11T13:34:28;3.10;;;0.43;;
38252;SDS011;24785;52.372;20.672;2022-07-11T13:44:29;1.48;;;0.70;;
38252;SDS011;24785;52.372;20.672;2022-07-11T13:54:30;0.60;;;0.57;;
38252;SDS011;24785;52.372;20.672;2022-07-11T14:04:31;3.35;;;0.50;;
38252;SDS011;24785;52.372;20.672;2022-07-11T14:14:32;3.90;;;2.25;;
38252;SDS011;24785;52.372;20.672;2022-07-11T14:24:33;7.65;;;1.10;;
38252;SDS011;24785;52.372;20.672;2022-07-11T14:34:35;3.27;;;0.90;;
38252;SDS011;24785;52.372;20.672;2022-07-11T14:44:36;1.63;;;0.82;;
38252;SDS011;24785;52.372;20.672;2022-07-11T14:54:36;1.98;;;1.08;;
38252;SDS011;24785;52.372;20.672;2022-07-11T15:04:37;3.97;;;1.00;;
38252;SDS011;24785;52.372;20.672;2022-07-11T15:14:38;1.63;;;0.80;;
38252;SDS011;24785;52.372;20.672;2022-07-11T15:24:39;2.90;;;0.90;;
38252;SDS011;24785;52.372;20.672;2022-07-11T15:34:40;2.15;;;0.93;;
38252;SDS011;24785;52.372;20.672;2022-07-11T15:44:40;3.45;;;0.90;;
38252;SDS011;24785;52.372;20.672;2022-07-11T15:54:41;0.98;;;0.70;;
38252;SDS011;24785;52.372;20.672;2022-07-11T16:04:42;1.48;;;0.70;;
38252;SDS011;24785;52.372;20.672;2022-07-11T16:14:43;3.60;;;0.70;;
38252;SDS011;24785;52.372;20.672;2022-07-11T16:24:44;2.58;;;1.23;;
38252;SDS011;24785;52.372;20.672;2022-07-11T16:34:44;1.90;;;1.13;;
38252;SDS011;24785;52.372;20.672;2022-07-11T16:44:45;3.90;;;1.63;;
38252;SDS011;24785;52.372;20.672;2022-07-11T16:54:46;3.22;;;1.55;;
38252;SDS011;24785;52.372;20.672;2022-07-11T17:04:47;6.43;;;1.35;;
38252;SDS011;24785;52.372;20.672;2022-07-11T17:14:51;2.65;;;1.30;;
38252;SDS011;24785;52.372;20.672;2022-07-11T17:24:52;1.85;;;1.10;;
38252;SDS011;24785;52.372;20.672;2022-07-11T17:34:54;1.42;;;0.52;;
38252;SDS011;24785;52.372;20.672;2022-07-11T17:44:55;3.60;;;0.82;;
38252;SDS011;24785;52.372;20.672;2022-07-11T17:54:56;1.90;;;0.90;;
38252;SDS011;24785;52.372;20.672;2022-07-11T18:04:57;2.53;;;1.10;;
38252;SDS011;24785;52.372;20.672;2022-07-11T18:14:58;2.53;;;0.88;;
38252;SDS011;24785;52.372;20.672;2022-07-11T18:24:59;11.75;;;4.32;;
38252;SDS011;24785;52.372;20.672;2022-07-11T18:35:02;2.55;;;1.33;;
38252;SDS011;24785;52.372;20.672;2022-07-11T18:45:03;5.93;;;1.20;;
38252;SDS011;24785;52.372;20.672;2022-07-11T18:55:04;10.60;;;4.70;;
38252;SDS011;24785;52.372;20.672;2022-07-11T19:05:06;3.72;;;1.80;;
38252;SDS011;24785;52.372;20.672;2022-07-11T19:15:07;4.65;;;1.92;;
38252;SDS011;24785;52.372;20.672;2022-07-11T19:25:08;6.20;;;2.20;;
38252;SDS011;24785;52.372;20.672;2022-07-11T19:35:10;11.77;;;3.70;;
38252;SDS011;24785;52.372;20.672;2022-07-11T19:45:10;9.95;;;4.45;;
38252;SDS011;24785;52.372;20.672;2022-07-11T19:55:13;14.38;;;5.70;;
38252;SDS011;24785;52.372;20.672;2022-07-11T20:05:32;5.57;;;3.30;;
38252;SDS011;24785;52.372;20.672;2022-07-11T20:15:33;7.15;;;2.60;;
38252;SDS011;24785;52.372;20.672;2022-07-11T20:25:35;7.40;;;1.92;;
38252;SDS011;24785;52.372;20.672;2022-07-11T20:35:36;3.58;;;1.70;;
38252;SDS011;24785;52.372;20.672;2022-07-11T20:45:36;3.95;;;1.88;;
38252;SDS011;24785;52.372;20.672;2022-07-11T20:55:38;5.97;;;2.00;;
38252;SDS011;24785;52.372;20.672;2022-07-11T21:05:41;5.20;;;2.65;;
38252;SDS011;24785;52.372;20.672;2022-07-11T21:15:42;7.32;;;2.95;;
38252;SDS011;24785;52.372;20.672;2022-07-11T21:25:42;7.82;;;2.40;;
38252;SDS011;24785;52.372;20.672;2022-07-11T21:35:43;7.55;;;2.45;;
38252;SDS011;24785;52.372;20.672;2022-07-11T21:45:44;7.13;;;2.45;;
38252;SDS011;24785;52.372;20.672;2022-07-11T21:55:45;4.55;;;2.45;;
38252;SDS011;24785;52.372;20.672;2022-07-11T22:05:45;4.10;;;2.30;;
38252;SDS011;24785;52.372;20.672;2022-07-11T22:15:46;7.13;;;2.30;;
38252;SDS011;24785;52.372;20.672;2022-07-11T22:25:47;6.32;;;2.80;;
38252;SDS011;24785;52.372;20.672;2022-07-11T22:47:13;11.45;;;3.50;;
38252;SDS011;24785;52.372;20.672;2022-07-11T22:57:14;5.30;;;1.90;;
38252;SDS011;24785;52.372;20.672;2022-07-11T23:07:15;5.25;;;1.92;;
38252;SDS011;24785;52.372;20.672;2022-07-11T23:17:16;4.20;;;1.60;;
38252;SDS011;24785;52.372;20.672;2022-07-11T23:27:17;4.80;;;1.60;;
38252;SDS011;24785;52.372;20.672;2022-07-11T23:37:17;6.03;;;1.90;;
38252;SDS011;24785;52.372;20.672;2022-07-11T23:47:18;4.60;;;2.03;;
38252;SDS011;24785;52.372;20.672;2022-07-11T23:57:19;9.25;;;2.40;;
